Terminal Aerodrome Forecast
Issued by NWS

Home | Current Version | Previous Version | Text Only | Print | Product List | Glossary On
Versions: 1 2 3 4 5 6 7 8 9 10 11 12 13 14 15 16 17 18 19 20 21 22 23 24 25
000
FTUS43 KLOT 290044 AAA
TAFDPA
TAF AMD
KDPA 290044Z 2901/2924 18015G23KT P6SM VCTS SCT040CB SCT250
      TEMPO 2902/2904 3SM -TSRA OVC030CB
     FM291500 23014G22KT P6SM SCT050
     FM292100 27014G22KT P6SM FEW060=

USA.gov is the U.S. government's official web portal to all federal, state and local government web resources and services.